createdAt,value
2019-03-27T00:01:40.059Z,102358.75
2019-03-27T00:04:11.338Z,102359.55
2019-03-27T00:06:42.651Z,102365.41
2019-03-27T00:09:13.970Z,102361.08
2019-03-27T00:11:45.245Z,102363.48
2019-03-27T00:14:16.597Z,102357.52
2019-03-27T00:16:48.007Z,102350.16
2019-03-27T00:19:19.324Z,102352.78
2019-03-27T00:21:50.582Z,102352.66
2019-03-27T00:24:21.982Z,102353.59
2019-03-27T00:26:53.302Z,102358.72
2019-03-27T00:29:24.615Z,102354.03
2019-03-27T00:31:56.015Z,102355.77
2019-03-27T00:34:27.283Z,102359.03
2019-03-27T00:36:58.573Z,102353.12
2019-03-27T00:39:29.985Z,102351.16
2019-03-27T00:42:01.310Z,102350.58
2019-03-27T00:44:32.629Z,102358.96
2019-03-27T00:47:03.972Z,102356.81
2019-03-27T00:49:35.296Z,102349.06
2019-03-27T00:52:06.611Z,102350.90
2019-03-27T00:54:37.876Z,102339.43
2019-03-27T00:57:09.243Z,102348.14
2019-03-27T00:59:40.516Z,102338.22
2019-03-27T01:02:11.939Z,102339.81
2019-03-27T01:04:43.304Z,102339.61
2019-03-27T01:07:14.632Z,102335.88
2019-03-27T01:09:45.961Z,102331.02
2019-03-27T01:12:17.321Z,102328.38
2019-03-27T01:14:48.673Z,102321.47
2019-03-27T01:17:20.045Z,102327.38
2019-03-27T01:19:51.440Z,102325.89
2019-03-27T01:22:22.750Z,102334.98
2019-03-27T01:24:54.016Z,102335.98
2019-03-27T01:27:25.253Z,102337.94
2019-03-27T01:29:56.578Z,102330.59
2019-03-27T01:32:27.925Z,102332.36
2019-03-27T01:34:59.247Z,102328.36
2019-03-27T01:37:30.574Z,102326.28
2019-03-27T01:40:02.771Z,102319.69
2019-03-27T01:42:34.236Z,102317.22
2019-03-27T01:45:05.862Z,102323.91
2019-03-27T01:47:37.298Z,102319.97
2019-03-27T01:50:09.520Z,102326.92
2019-03-27T01:52:40.857Z,102320.09
2019-03-27T01:55:12.248Z,102324.03
2019-03-27T01:57:43.621Z,102324.16
2019-03-27T02:00:16.085Z,102330.98
2019-03-27T02:02:47.474Z,102332.56
2019-03-27T02:05:18.844Z,102326.25
2019-03-27T02:07:50.142Z,102321.41
2019-03-27T02:10:21.504Z,102319.17
2019-03-27T02:12:52.758Z,102312.89
2019-03-27T02:15:24.098Z,102318.52
2019-03-27T02:17:55.497Z,102318.52
2019-03-27T02:20:26.711Z,102317.59
2019-03-27T02:22:58.056Z,102325.73
2019-03-27T02:25:29.338Z,102327.85
2019-03-27T02:28:00.637Z,102315.11
2019-03-27T02:30:31.903Z,102316.80
2019-03-27T02:33:03.261Z,102309.38
2019-03-27T02:35:34.522Z,102312.61
2019-03-27T02:38:05.842Z,102318.52
2019-03-27T02:40:37.227Z,102334.60
2019-03-27T02:43:08.496Z,102332.20
2019-03-27T02:45:39.805Z,102332.58
2019-03-27T02:48:13.920Z,102335.47
2019-03-27T02:50:44.080Z,102328.10
2019-03-27T02:53:15.384Z,102330.22
2019-03-27T02:55:46.698Z,102322.08
2019-03-27T02:58:17.941Z,102318.59
2019-03-27T03:00:49.286Z,102320.22
2019-03-27T03:03:20.418Z,102321.16
2019-03-27T03:05:51.715Z,102312.09
2019-03-27T03:08:23.040Z,102311.84
2019-03-27T03:10:54.389Z,102315.91
2019-03-27T03:13:25.668Z,102316.45
2019-03-27T03:15:56.983Z,102313.66
2019-03-27T03:18:28.316Z,102302.77
2019-03-27T03:20:59.618Z,102304.47
2019-03-27T03:23:30.930Z,102304.86
2019-03-27T03:26:02.246Z,102308.61
2019-03-27T03:28:33.493Z,102308.92
2019-03-27T03:31:04.819Z,102310.78
2019-03-27T03:33:36.138Z,102311.30
2019-03-27T03:36:07.463Z,102311.55
2019-03-27T03:38:38.742Z,102318.66
2019-03-27T03:41:10.196Z,102332.49
2019-03-27T03:43:41.391Z,102335.89
2019-03-27T03:46:12.646Z,102328.87
2019-03-27T03:48:43.887Z,102319.05
2019-03-27T03:51:16.097Z,102316.12
2019-03-27T03:53:48.614Z,102319.81
2019-03-27T03:56:21.831Z,102323.21
2019-03-27T03:58:54.796Z,102320.90
2019-03-27T04:01:28.966Z,102321.19
2019-03-27T04:04:01.509Z,102331.37
2019-03-27T04:06:32.776Z,102327.66
2019-03-27T04:09:04.272Z,102328.40
2019-03-27T04:11:35.623Z,102324.52
2019-03-27T04:14:06.917Z,102337.39
2019-03-27T04:16:38.187Z,102333.42
2019-03-27T04:19:09.541Z,102339.35
2019-03-27T04:21:40.844Z,102348.09
2019-03-27T04:24:12.119Z,102348.67
2019-03-27T04:26:43.441Z,102343.29
2019-03-27T04:29:14.718Z,102338.97
2019-03-27T04:31:46.005Z,102352.23
2019-03-27T04:34:17.248Z,102352.42
2019-03-27T04:36:48.557Z,102350.82
2019-03-27T04:39:19.773Z,102343.36
2019-03-27T04:41:51.016Z,102340.22
2019-03-27T04:44:22.379Z,102346.72
2019-03-27T04:46:53.684Z,102352.84
2019-03-27T04:49:25.087Z,102357.33
2019-03-27T04:51:56.347Z,102367.80
2019-03-27T04:54:27.549Z,102369.37
2019-03-27T04:56:58.933Z,102372.57
2019-03-27T04:59:30.259Z,102371.33
2019-03-27T05:02:02.398Z,102367.73
2019-03-27T05:04:33.718Z,102372.37
2019-03-27T05:07:05.056Z,102369.62
2019-03-27T05:09:36.294Z,102367.80
2019-03-27T05:12:07.625Z,102363.95
2019-03-27T05:14:38.917Z,102365.75
2019-03-27T05:17:10.226Z,102371.80
2019-03-27T05:19:41.482Z,102369.04
2019-03-27T05:22:12.831Z,102366.34
2019-03-27T05:24:44.099Z,102368.18
2019-03-27T05:27:15.317Z,102368.50
2019-03-27T05:29:46.556Z,102373.11
2019-03-27T05:32:17.895Z,102385.80
2019-03-27T05:34:49.125Z,102382.24
2019-03-27T05:37:20.436Z,102388.42
2019-03-27T05:39:51.679Z,102394.79
2019-03-27T05:42:22.872Z,102391.56
2019-03-27T05:44:54.084Z,102396.42
2019-03-27T05:47:25.404Z,102398.33
2019-03-27T05:49:56.790Z,102393.84
2019-03-27T05:52:28.107Z,102396.19
2019-03-27T05:54:59.419Z,102385.77
2019-03-27T05:57:30.644Z,102388.08
2019-03-27T06:00:02.004Z,102391.47
2019-03-27T06:02:33.330Z,102383.18
2019-03-27T06:05:04.795Z,102391.31
2019-03-27T06:07:36.152Z,102380.80
2019-03-27T06:10:08.579Z,102382.22
2019-03-27T06:12:40.265Z,102393.30
2019-03-27T06:15:12.326Z,102394.36
2019-03-27T06:17:43.615Z,102391.12
2019-03-27T06:20:15.108Z,102383.69
2019-03-27T06:22:46.338Z,102395.64
2019-03-27T06:25:17.670Z,102395.64
2019-03-27T06:27:48.965Z,102392.50
2019-03-27T06:30:20.307Z,102395.98
2019-03-27T06:32:51.541Z,102388.94
2019-03-27T06:35:22.855Z,102385.25
2019-03-27T06:37:54.202Z,102377.27
2019-03-27T06:40:25.499Z,102371.42
2019-03-27T06:42:56.847Z,102371.72
2019-03-27T06:48:26.275Z,102374.37
2019-03-27T06:50:51.511Z,102379.55
2019-03-27T06:53:22.876Z,102383.50
2019-03-27T06:55:54.108Z,102385.77
2019-03-27T06:58:25.440Z,102386.06
2019-03-27T07:00:56.756Z,102379.49
2019-03-27T07:03:28.055Z,102377.20
2019-03-27T07:05:59.318Z,102375.87
2019-03-27T07:08:30.690Z,102386.27
2019-03-27T07:11:01.860Z,102388.12
2019-03-27T07:13:33.159Z,102382.95
2019-03-27T07:16:04.464Z,102384.38
2019-03-27T07:18:40.307Z,102376.94
2019-03-27T07:21:08.839Z,102385.59
2019-03-27T07:23:40.181Z,102388.78
2019-03-27T07:26:11.435Z,102390.72
2019-03-27T07:28:42.723Z,102395.84
2019-03-27T07:31:14.053Z,102400.66
2019-03-27T07:33:45.365Z,102390.38
2019-03-27T07:36:16.734Z,102401.55
2019-03-27T07:38:48.028Z,102398.36
2019-03-27T07:41:19.293Z,102405.02
2019-03-27T07:43:50.599Z,102397.67
2019-03-27T07:46:21.914Z,102403.87
2019-03-27T07:48:54.457Z,102411.38
2019-03-27T07:51:25.876Z,102404.89
2019-03-27T07:53:57.235Z,102408.30
2019-03-27T07:56:28.545Z,102408.59
2019-03-27T07:58:59.982Z,102407.12
2019-03-27T08:01:31.372Z,102405.04
2019-03-27T08:04:02.666Z,102400.07
2019-03-27T08:06:33.969Z,102406.80
2019-03-27T08:09:06.907Z,102410.84
2019-03-27T08:11:38.236Z,102414.79
2019-03-27T08:14:09.639Z,102411.09
2019-03-27T08:16:40.887Z,102408.59
2019-03-27T08:19:12.241Z,102417.84
2019-03-27T08:21:43.529Z,102408.06
2019-03-27T08:24:14.886Z,102413.94
2019-03-27T08:26:46.203Z,102414.41
2019-03-27T08:29:17.512Z,102420.70
2019-03-27T08:31:48.896Z,102411.61
2019-03-27T08:37:10.521Z,102424.94
2019-03-27T08:39:41.833Z,102418.11
2019-03-27T08:42:13.135Z,102415.64
2019-03-27T08:44:44.469Z,102421.59
2019-03-27T08:47:15.829Z,102419.42
2019-03-27T08:49:47.114Z,102424.36
2019-03-27T08:52:18.461Z,102432.95
2019-03-27T08:54:49.758Z,102454.91
2019-03-27T08:57:21.094Z,102437.54
2019-03-27T08:59:52.341Z,102443.42
2019-03-27T09:02:23.548Z,102432.34
2019-03-27T09:04:54.898Z,102437.02
2019-03-27T09:07:26.222Z,102450.24
2019-03-27T09:09:57.473Z,102440.03
2019-03-27T09:12:28.844Z,102447.03
2019-03-27T09:15:00.098Z,102440.23
2019-03-27T09:17:31.541Z,102439.39
2019-03-27T09:20:02.849Z,102443.33
2019-03-27T09:22:34.076Z,102437.69
2019-03-27T09:25:05.980Z,102451.31
2019-03-27T09:27:37.253Z,102457.77
2019-03-27T09:30:10.838Z,102447.94
2019-03-27T09:32:42.132Z,102452.88
2019-03-27T09:35:13.554Z,102478.05
2019-03-27T09:37:44.912Z,102463.31
2019-03-27T09:40:16.414Z,102464.81
2019-03-27T09:42:47.690Z,102461.46
2019-03-27T09:45:19.231Z,102450.01
2019-03-27T09:47:50.521Z,102459.80
2019-03-27T09:50:21.788Z,102457.16
2019-03-27T09:52:53.042Z,102454.08
2019-03-27T09:55:24.341Z,102463.09
2019-03-27T09:57:55.641Z,102459.13
2019-03-27T10:01:05.475Z,102458.98
2019-03-27T10:03:36.761Z,102462.30
2019-03-27T10:06:08.069Z,102458.23
2019-03-27T10:08:39.403Z,102464.44
2019-03-27T10:11:10.691Z,102453.82
2019-03-27T10:13:41.959Z,102457.44
2019-03-27T10:16:13.287Z,102446.97
2019-03-27T10:18:47.297Z,102448.77
2019-03-27T10:21:17.689Z,102449.07
2019-03-27T10:23:48.984Z,102445.88
2019-03-27T10:26:20.353Z,102448.36
2019-03-27T10:28:51.806Z,102445.91
2019-03-27T10:31:23.089Z,102450.58
2019-03-27T10:33:54.390Z,102446.09
2019-03-27T10:36:25.801Z,102458.22
2019-03-27T10:38:56.937Z,102452.27
2019-03-27T10:41:28.242Z,102453.80
2019-03-27T10:43:59.700Z,102453.52
2019-03-27T10:46:30.913Z,102457.78
2019-03-27T10:49:02.185Z,102457.03
2019-03-27T10:51:33.503Z,102463.20
2019-03-27T10:54:04.899Z,102470.75
2019-03-27T10:56:36.240Z,102475.94
2019-03-27T10:59:07.562Z,102478.26
2019-03-27T11:01:38.819Z,102479.10
2019-03-27T11:04:10.137Z,102475.08
2019-03-27T11:06:41.504Z,102473.59
2019-03-27T11:09:12.771Z,102475.31
2019-03-27T11:11:43.896Z,102470.19
2019-03-27T11:14:15.132Z,102463.14
2019-03-27T11:16:46.415Z,102467.03
2019-03-27T11:19:17.730Z,102467.09
2019-03-27T11:21:49.033Z,102470.20
2019-03-27T11:24:20.223Z,102460.06
2019-03-27T11:26:51.523Z,102468.17
2019-03-27T11:29:22.840Z,102464.02
2019-03-27T11:31:54.059Z,102467.28
2019-03-27T11:34:25.388Z,102464.64
2019-03-27T11:36:56.735Z,102473.44
2019-03-27T11:39:27.946Z,102475.38
2019-03-27T11:42:00.744Z,102468.27
2019-03-27T11:44:32.295Z,102460.30
2019-03-27T11:47:03.581Z,102463.23
2019-03-27T11:49:34.920Z,102460.12
2019-03-27T11:52:06.232Z,102464.55
2019-03-27T11:54:37.547Z,102461.05
2019-03-27T11:57:08.793Z,102456.56
2019-03-27T11:59:52.924Z,102460.98
2019-03-27T12:02:13.164Z,102464.17
2019-03-27T12:04:44.509Z,102459.37
2019-03-27T12:07:15.863Z,102458.49
2019-03-27T12:09:47.154Z,102459.75
2019-03-27T12:12:18.347Z,102460.73
2019-03-27T12:14:49.544Z,102471.52
2019-03-27T12:17:20.848Z,102463.47
2019-03-27T12:19:52.251Z,102474.77
2019-03-27T12:22:23.482Z,102465.31
2019-03-27T12:24:54.841Z,102473.22
2019-03-27T12:27:26.083Z,102474.46
2019-03-27T12:29:57.391Z,102471.28
2019-03-27T12:32:28.580Z,102469.27
2019-03-27T12:34:59.784Z,102471.43
2019-03-27T12:37:31.071Z,102494.37
2019-03-27T12:40:11.032Z,102475.47
2019-03-27T12:42:35.384Z,102477.81
2019-03-27T12:45:07.459Z,102472.92
2019-03-27T12:47:38.747Z,102472.92
2019-03-27T12:50:10.432Z,102472.54
2019-03-27T12:52:41.645Z,102477.63
2019-03-27T12:55:12.954Z,102468.59
2019-03-27T12:57:44.200Z,102471.42
2019-03-27T13:00:15.894Z,102472.08
2019-03-27T13:02:47.235Z,102477.25
2019-03-27T13:05:18.539Z,102479.42
2019-03-27T13:07:50.523Z,102474.30
2019-03-27T13:10:21.808Z,102487.23
2019-03-27T13:12:53.172Z,102483.52
2019-03-27T13:15:24.448Z,102480.36
2019-03-27T13:17:55.669Z,102478.81
2019-03-27T13:20:27.026Z,102484.14
2019-03-27T13:22:58.235Z,102485.00
2019-03-27T13:25:29.469Z,102484.45
2019-03-27T13:28:00.817Z,102483.55
2019-03-27T13:30:32.083Z,102492.22
2019-03-27T13:33:03.404Z,102480.59
2019-03-27T13:35:34.723Z,102486.88
2019-03-27T13:38:06.008Z,102480.74
2019-03-27T13:40:37.322Z,102476.86
2019-03-27T13:43:09.590Z,102479.10
2019-03-27T13:45:40.987Z,102489.05
2019-03-27T13:48:12.268Z,102487.33
2019-03-27T13:50:43.595Z,102492.75
2019-03-27T13:53:14.887Z,102488.03
2019-03-27T13:55:46.207Z,102493.52
2019-03-27T13:58:17.368Z,102487.56
2019-03-27T14:00:48.650Z,102484.23
2019-03-27T14:03:19.939Z,102480.66
2019-03-27T14:05:51.263Z,102479.95
2019-03-27T14:08:22.472Z,102484.47
2019-03-27T14:10:53.713Z,102474.06
2019-03-27T14:13:24.917Z,102485.23
2019-03-27T14:15:56.093Z,102477.24
2019-03-27T14:18:27.445Z,102473.22
2019-03-27T14:20:58.750Z,102475.70
2019-03-27T14:23:30.026Z,102476.02
2019-03-27T14:26:01.137Z,102471.75
2019-03-27T14:28:32.457Z,102471.57
2019-03-27T14:31:04.032Z,102470.81
2019-03-27T14:33:35.333Z,102476.23
2019-03-27T14:36:06.694Z,102472.35
2019-03-27T14:38:37.968Z,102478.94
2019-03-27T14:41:09.248Z,102476.63
2019-03-27T14:43:40.483Z,102473.55
2019-03-27T14:46:11.778Z,102485.69
2019-03-27T14:48:43.080Z,102477.78
2019-03-27T14:51:14.444Z,102485.31
2019-03-27T14:53:45.648Z,102480.05
2019-03-27T14:56:16.936Z,102476.88
2019-03-27T14:58:48.316Z,102482.30
2019-03-27T15:01:19.610Z,102481.73
2019-03-27T15:03:50.890Z,102479.80
2019-03-27T15:06:22.184Z,102483.13
2019-03-27T15:08:53.448Z,102485.14
2019-03-27T15:11:24.786Z,102483.00
2019-03-27T15:13:56.148Z,102485.62
2019-03-27T15:16:27.393Z,102483.38
2019-03-27T15:18:58.625Z,102485.45
2019-03-27T15:21:29.958Z,102481.05
2019-03-27T15:24:01.284Z,102485.38
2019-03-27T15:26:32.477Z,102485.94
2019-03-27T15:29:03.826Z,102492.04
2019-03-27T15:31:35.176Z,102488.19
2019-03-27T15:34:06.427Z,102485.38
2019-03-27T15:36:37.799Z,102486.77
2019-03-27T15:39:09.793Z,102487.19
2019-03-27T15:41:41.136Z,102484.45
2019-03-27T15:44:12.429Z,102484.70
2019-03-27T15:46:43.739Z,102494.30
2019-03-27T15:49:15.061Z,102491.05
2019-03-27T15:51:46.381Z,102491.60
2019-03-27T15:54:17.725Z,102490.21
2019-03-27T15:56:49.050Z,102497.95
2019-03-27T15:59:20.391Z,102494.14
2019-03-27T16:01:51.793Z,102498.88
2019-03-27T16:04:23.084Z,102510.80
2019-03-27T16:06:54.440Z,102502.66
2019-03-27T16:09:25.850Z,102497.47
2019-03-27T16:11:57.193Z,102494.83
2019-03-27T16:14:28.632Z,102498.27
2019-03-27T16:17:12.725Z,102498.64
2019-03-27T16:19:33.017Z,102500.34
2019-03-27T16:22:04.496Z,102495.69
2019-03-27T16:24:35.747Z,102505.30
2019-03-27T16:27:07.133Z,102493.62
2019-03-27T16:29:38.480Z,102503.04
2019-03-27T16:32:09.899Z,102510.04
2019-03-27T16:34:41.235Z,102502.84
2019-03-27T16:37:13.813Z,102510.95
2019-03-27T16:39:48.270Z,102510.56
2019-03-27T16:42:19.491Z,102513.75
2019-03-27T16:44:50.843Z,102510.50
2019-03-27T16:47:22.835Z,102515.45
2019-03-27T16:49:54.334Z,102516.01
2019-03-27T16:52:25.752Z,102512.47
2019-03-27T16:54:57.126Z,102513.55
2019-03-27T16:57:28.364Z,102528.11
2019-03-27T16:59:59.864Z,102513.62
2019-03-27T17:02:31.279Z,102518.95
2019-03-27T17:05:02.637Z,102520.03
2019-03-27T17:07:33.926Z,102513.52
2019-03-27T17:10:05.473Z,102509.50
2019-03-27T17:12:36.978Z,102520.09
2019-03-27T17:15:08.719Z,102518.09
2019-03-27T17:17:40.084Z,102521.73
2019-03-27T17:20:12.702Z,102524.15
2019-03-27T17:22:44.084Z,102520.34
2019-03-27T17:25:15.475Z,102520.34
2019-03-27T17:27:46.950Z,102534.75
2019-03-27T17:30:18.969Z,102530.42
2019-03-27T17:32:50.282Z,102535.14
2019-03-27T17:35:21.559Z,102541.96
2019-03-27T17:37:53.002Z,102530.94
2019-03-27T17:40:24.573Z,102544.52
2019-03-27T17:42:56.021Z,102537.14
2019-03-27T17:45:27.492Z,102536.38
2019-03-27T17:47:58.962Z,102547.54
2019-03-27T17:50:30.277Z,102548.55
2019-03-27T17:53:01.576Z,102543.28
2019-03-27T17:55:33.019Z,102549.00
2019-03-27T17:58:04.555Z,102542.27
2019-03-27T18:00:52.779Z,102550.69
2019-03-27T18:03:24.198Z,102545.08
2019-03-27T18:05:55.527Z,102556.07
2019-03-27T18:08:26.876Z,102554.37
2019-03-27T18:10:58.212Z,102556.07
2019-03-27T18:13:29.537Z,102554.69
2019-03-27T18:16:00.931Z,102560.41
2019-03-27T18:18:32.207Z,102566.67
2019-03-27T18:21:03.568Z,102568.79
2019-03-27T18:23:45.235Z,102573.73
2019-03-27T18:26:08.225Z,102579.39
2019-03-27T18:28:39.521Z,102573.73
2019-03-27T18:31:10.819Z,102575.27
2019-03-27T18:33:42.131Z,102575.16
2019-03-27T18:36:13.502Z,102572.19
2019-03-27T18:38:46.052Z,102576.59
2019-03-27T18:41:17.594Z,102573.05
2019-03-27T18:43:48.980Z,102576.59
2019-03-27T18:46:20.282Z,102576.20
2019-03-27T18:48:51.590Z,102568.69
2019-03-27T18:51:22.929Z,102570.00
2019-03-27T18:53:59.970Z,102568.23
2019-03-27T18:59:19.928Z,102574.50
2019-03-27T19:01:51.337Z,102577.83
2019-03-27T19:04:22.731Z,102570.86
2019-03-27T19:06:54.169Z,102572.63
2019-03-27T19:09:25.607Z,102573.86
2019-03-27T19:11:56.970Z,102573.00
2019-03-27T19:14:28.317Z,102578.02
2019-03-27T19:16:59.641Z,102580.33
2019-03-27T19:19:30.915Z,102574.45
2019-03-27T19:22:02.221Z,102579.63
2019-03-27T19:24:33.517Z,102575.75
2019-03-27T19:27:06.506Z,102588.59
2019-03-27T19:29:37.886Z,102581.46
2019-03-27T19:32:09.121Z,102581.40
2019-03-27T19:34:40.487Z,102586.03
2019-03-27T19:37:11.870Z,102589.53
2019-03-27T19:39:43.221Z,102588.41
2019-03-27T19:42:14.619Z,102587.89
2019-03-27T19:44:45.859Z,102581.25
2019-03-27T19:47:17.156Z,102589.79
2019-03-27T19:49:48.404Z,102578.49
2019-03-27T19:52:19.902Z,102591.27
2019-03-27T19:54:51.202Z,102582.44
2019-03-27T19:57:22.439Z,102591.95
2019-03-27T19:59:53.836Z,102594.41
2019-03-27T20:02:25.069Z,102593.97
2019-03-27T20:04:56.547Z,102594.26
2019-03-27T20:07:35.824Z,102590.08
2019-03-27T20:10:00.915Z,102597.79
2019-03-27T20:12:32.220Z,102595.64
2019-03-27T20:15:11.864Z,102590.44
2019-03-27T20:17:36.738Z,102588.12
2019-03-27T20:20:09.657Z,102593.94
2019-03-27T20:22:41.053Z,102589.45
2019-03-27T20:25:14.839Z,102591.31
2019-03-27T20:27:45.550Z,102587.48
2019-03-27T20:30:19.550Z,102576.03
2019-03-27T20:32:50.916Z,102589.73
2019-03-27T20:35:23.093Z,102602.83
2019-03-27T20:37:54.579Z,102599.02
2019-03-27T20:40:27.720Z,102592.50
2019-03-27T20:42:58.989Z,102600.39
2019-03-27T20:45:30.226Z,102602.03
2019-03-27T20:48:01.582Z,102592.50
2019-03-27T20:50:32.891Z,102601.19
2019-03-27T20:53:04.143Z,102609.22
2019-03-27T20:55:35.393Z,102600.39
2019-03-27T20:58:06.777Z,102596.31
2019-03-27T21:00:38.148Z,102591.25
2019-03-27T21:03:09.493Z,102593.17
2019-03-27T21:05:40.809Z,102592.72
2019-03-27T21:08:12.162Z,102589.61
2019-03-27T21:10:43.425Z,102586.59
2019-03-27T21:13:14.750Z,102589.99
2019-03-27T21:15:46.027Z,102595.06
2019-03-27T21:18:17.481Z,102583.34
2019-03-27T21:20:48.806Z,102597.38
2019-03-27T21:23:20.121Z,102592.23
2019-03-27T21:25:51.621Z,102597.89
2019-03-27T21:28:22.855Z,102595.13
2019-03-27T21:30:54.167Z,102596.19
2019-03-27T21:33:25.542Z,102592.91
2019-03-27T21:35:56.913Z,102595.41
2019-03-27T21:38:28.222Z,102605.02
2019-03-27T21:40:59.605Z,102605.14
2019-03-27T21:43:30.825Z,102613.67
2019-03-27T21:46:02.142Z,102607.77
2019-03-27T21:48:33.703Z,102607.38
2019-03-27T21:51:05.035Z,102607.32
2019-03-27T21:53:37.169Z,102601.12
2019-03-27T21:56:08.531Z,102612.26
2019-03-27T21:58:39.842Z,102616.20
2019-03-27T22:01:11.283Z,102612.26
2019-03-27T22:03:42.637Z,102616.72
2019-03-27T22:06:13.935Z,102614.02
2019-03-27T22:08:45.246Z,102614.34
2019-03-27T22:11:16.583Z,102624.61
2019-03-27T22:13:47.878Z,102620.77
2019-03-27T22:16:19.295Z,102625.92
2019-03-27T22:18:50.675Z,102626.34
2019-03-27T22:21:22.020Z,102632.05
2019-03-27T22:23:53.404Z,102634.75
2019-03-27T22:26:24.774Z,102628.31
2019-03-27T22:28:56.122Z,102628.05
2019-03-27T22:31:27.428Z,102630.29
2019-03-27T22:33:58.794Z,102632.50
2019-03-27T22:36:30.131Z,102635.94
2019-03-27T22:39:01.439Z,102632.50
2019-03-27T22:41:32.733Z,102639.34
2019-03-27T22:44:04.062Z,102643.45
2019-03-27T22:46:35.325Z,102643.95
2019-03-27T22:49:06.693Z,102645.53
2019-03-27T22:51:37.991Z,102645.27
2019-03-27T22:54:09.320Z,102647.91
2019-03-27T22:56:40.687Z,102648.83
2019-03-27T22:59:12.010Z,102648.89
2019-03-27T23:01:47.644Z,102644.34
2019-03-27T23:04:19.007Z,102651.08
2019-03-27T23:06:50.445Z,102652.91
2019-03-27T23:09:21.704Z,102645.55
2019-03-27T23:11:53.017Z,102652.58
2019-03-27T23:14:24.352Z,102645.10
2019-03-27T23:16:55.674Z,102653.32
2019-03-27T23:19:26.993Z,102651.27
2019-03-27T23:21:58.316Z,102647.80
2019-03-27T23:24:29.681Z,102644.50
2019-03-27T23:27:01.106Z,102643.70
2019-03-27T23:29:32.437Z,102644.23
2019-03-27T23:32:03.770Z,102646.87
2019-03-27T23:34:35.080Z,102649.38
2019-03-27T23:37:06.452Z,102650.81
2019-03-27T23:39:37.810Z,102645.55
2019-03-27T23:42:09.166Z,102657.78
2019-03-27T23:44:40.565Z,102656.08
2019-03-27T23:47:11.910Z,102661.01
2019-03-27T23:49:43.213Z,102667.52
2019-03-27T23:52:14.552Z,102663.58
2019-03-27T23:54:45.831Z,102663.91
2019-03-27T23:57:17.133Z,102675.27
2019-03-27T23:59:48.758Z,102667.14
